createdAt,value
2019-02-12T00:04:16.697Z,5.70
2019-02-12T00:08:36.270Z,5.70
2019-02-12T00:12:54.606Z,5.70
2019-02-12T00:17:12.853Z,5.70
2019-02-12T00:21:31.357Z,5.70
2019-02-12T00:25:49.604Z,5.60
2019-02-12T00:30:08.214Z,5.60
2019-02-12T00:34:26.209Z,5.60
2019-02-12T00:38:45.177Z,5.60
2019-02-12T00:43:03.400Z,5.50
2019-02-12T00:47:21.571Z,5.50
2019-02-12T00:51:41.458Z,5.50
2019-02-12T00:55:59.607Z,5.50
2019-02-12T01:00:17.844Z,5.60
2019-02-12T01:04:36.337Z,5.60
2019-02-12T01:08:54.727Z,5.60
2019-02-12T01:13:14.350Z,5.70
2019-02-12T01:17:33.503Z,5.70
2019-02-12T01:21:51.820Z,5.80
2019-02-12T01:26:10.298Z,5.80
2019-02-12T01:30:29.179Z,5.90
2019-02-12T01:34:47.394Z,5.90
2019-02-12T01:39:09.562Z,6.00
2019-02-12T01:43:27.856Z,6.00
2019-02-12T01:47:46.017Z,6.00
2019-02-12T01:52:04.244Z,6.00
2019-02-12T01:56:23.003Z,6.00
2019-02-12T02:00:41.165Z,6.10
2019-02-12T02:04:59.720Z,6.10
2019-02-12T02:09:17.935Z,6.10
2019-02-12T02:13:36.537Z,6.10
2019-02-12T02:17:54.681Z,6.00
2019-02-12T02:22:13.564Z,6.00
2019-02-12T02:26:31.710Z,5.90
2019-02-12T02:30:50.283Z,5.90
2019-02-12T02:35:08.901Z,5.90
2019-02-12T02:39:27.379Z,5.90
2019-02-12T02:43:45.940Z,5.90
2019-02-12T02:48:04.376Z,5.90
2019-02-12T02:52:22.894Z,5.90
2019-02-12T02:56:41.872Z,5.90
2019-02-12T03:01:00.118Z,5.90
2019-02-12T03:05:19.223Z,5.90
2019-02-12T03:09:37.496Z,5.90
2019-02-12T03:13:55.651Z,5.90
2019-02-12T03:18:13.891Z,5.90
2019-02-12T03:22:32.054Z,5.90
2019-02-12T03:26:50.556Z,5.90
2019-02-12T03:31:09.932Z,5.90
2019-02-12T03:35:28.073Z,5.90
2019-02-12T03:39:46.562Z,5.90
2019-02-12T03:44:05.059Z,5.90
2019-02-12T03:48:23.497Z,5.90
2019-02-12T03:52:42.080Z,5.90
2019-02-12T03:57:00.620Z,5.90
2019-02-12T04:01:18.826Z,5.90
2019-02-12T04:05:38.620Z,5.90
2019-02-12T04:09:57.511Z,5.90
2019-02-12T04:14:15.683Z,5.90
2019-02-12T04:18:33.782Z,5.90
2019-02-12T04:22:51.840Z,5.90
2019-02-12T04:27:10.023Z,5.90
2019-02-12T04:31:28.248Z,5.90
2019-02-12T04:35:46.466Z,5.90
2019-02-12T04:40:05.486Z,5.90
2019-02-12T04:44:23.506Z,5.90
2019-02-12T04:48:42.009Z,5.90
2019-02-12T04:53:00.236Z,5.90
2019-02-12T04:57:18.846Z,6.00
2019-02-12T05:01:37.313Z,5.90
2019-02-12T05:05:56.805Z,5.90
2019-02-12T05:10:16.947Z,5.90
2019-02-12T05:14:35.310Z,5.90
2019-02-12T05:18:53.781Z,5.90
2019-02-12T05:23:12.491Z,5.90
2019-02-12T05:27:30.729Z,5.80
2019-02-12T05:31:48.811Z,5.80
2019-02-12T05:36:07.110Z,5.80
2019-02-12T05:40:25.349Z,5.80
2019-02-12T05:44:44.269Z,5.80
2019-02-12T05:49:03.238Z,5.80
2019-02-12T05:53:21.382Z,5.80
2019-02-12T05:57:40.261Z,5.80
2019-02-12T06:01:58.886Z,5.90
2019-02-12T06:06:17.330Z,5.90
2019-02-12T06:10:36.525Z,5.90
2019-02-12T06:14:55.007Z,5.90
2019-02-12T06:19:13.132Z,5.90
2019-02-12T06:23:31.743Z,6.00
2019-02-12T06:27:51.051Z,6.00
2019-02-12T06:32:09.224Z,5.90
2019-02-12T06:36:27.636Z,6.00
2019-02-12T06:40:46.153Z,6.00
2019-02-12T06:45:04.787Z,5.90
2019-02-12T06:49:23.726Z,5.90
2019-02-12T06:53:41.952Z,5.90
2019-02-12T06:58:01.042Z,5.90
2019-02-12T07:03:13.901Z,5.90
2019-02-12T07:08:46.886Z,5.90
2019-02-12T07:13:44.327Z,5.90
2019-02-12T07:18:45.651Z,5.90
2019-02-12T07:24:02.660Z,6.00
2019-02-12T07:29:14.060Z,6.00
2019-02-12T07:34:30.189Z,6.00
2019-02-12T07:39:16.676Z,6.00
2019-02-12T07:44:54.894Z,6.00
2019-02-12T07:50:11.207Z,6.10
2019-02-12T07:55:20.449Z,6.10
2019-02-12T08:00:22.492Z,6.10
2019-02-12T08:05:50.068Z,6.20
2019-02-12T08:11:00.648Z,6.30
2019-02-12T08:16:04.657Z,6.40
2019-02-12T08:21:19.241Z,6.40
2019-02-12T08:26:06.229Z,6.50
2019-02-12T08:31:13.691Z,6.60
2019-02-12T08:35:57.814Z,6.70
2019-02-12T08:41:23.765Z,6.90
2019-02-12T08:46:58.156Z,7.10
2019-02-12T08:52:34.476Z,7.30
2019-02-12T08:57:34.844Z,7.40
2019-02-12T09:02:58.067Z,7.50
2019-02-12T09:08:22.323Z,7.60
2019-02-12T09:13:33.723Z,7.60
2019-02-12T09:18:41.176Z,7.60
2019-02-12T09:24:08.395Z,7.50
2019-02-12T09:29:00.646Z,7.50
2019-02-12T09:34:15.419Z,7.50
2019-02-12T09:39:46.683Z,7.60
2019-02-12T09:45:15.267Z,7.70
2019-02-12T09:50:30.541Z,7.80
2019-02-12T09:55:23.262Z,7.90
2019-02-12T10:00:18.776Z,8.00
2019-02-12T10:05:30.823Z,8.10
2019-02-12T10:10:45.599Z,8.10
2019-02-12T10:15:59.856Z,8.20
2019-02-12T10:20:51.424Z,8.20
2019-02-12T10:25:39.209Z,8.20
2019-02-12T10:30:48.490Z,8.40
2019-02-12T10:35:07.973Z,8.50
2019-02-12T10:39:26.760Z,8.70
2019-02-12T10:43:46.478Z,8.80
2019-02-12T10:48:04.522Z,9.10
2019-02-12T10:52:25.002Z,9.40
2019-02-12T10:56:44.244Z,9.60
2019-02-12T11:01:02.774Z,9.60
2019-02-12T11:05:21.554Z,9.50
2019-02-12T11:09:39.690Z,9.40
2019-02-12T11:13:59.403Z,9.30
2019-02-12T11:18:18.256Z,9.20
2019-02-12T11:22:38.305Z,9.20
2019-02-12T11:26:56.625Z,9.30
2019-02-12T11:31:15.204Z,9.30
2019-02-12T11:35:33.799Z,9.20
2019-02-12T11:39:54.998Z,9.10
2019-02-12T11:44:13.700Z,9.00
2019-02-12T11:48:31.959Z,8.90
2019-02-12T11:52:50.189Z,8.90
2019-02-12T11:57:09.147Z,8.70
2019-02-12T12:01:30.791Z,8.60
2019-02-12T12:05:48.944Z,8.50
2019-02-12T12:10:08.049Z,8.50
2019-02-12T12:14:26.269Z,8.50
2019-02-12T12:18:46.047Z,8.50
2019-02-12T12:23:04.892Z,8.60
2019-02-12T12:27:23.115Z,8.60
2019-02-12T12:31:41.393Z,8.70
2019-02-12T12:36:02.384Z,8.70
2019-02-12T12:40:21.109Z,8.80
2019-02-12T12:44:39.299Z,8.70
2019-02-12T12:49:00.510Z,8.70
2019-02-12T12:53:19.010Z,8.80
2019-02-12T12:57:41.988Z,8.80
2019-02-12T13:01:58.823Z,8.80
2019-02-12T13:06:17.151Z,8.80
2019-02-12T13:10:35.808Z,8.80
2019-02-12T13:14:54.163Z,8.80
2019-02-12T13:19:13.434Z,8.80
2019-02-12T13:23:32.219Z,8.90
2019-02-12T13:27:51.314Z,8.90
2019-02-12T13:32:09.953Z,8.90
2019-02-12T13:36:31.351Z,9.00
2019-02-12T13:40:49.763Z,9.00
2019-02-12T13:45:10.136Z,9.00
2019-02-12T13:49:28.746Z,9.10
2019-02-12T13:53:46.882Z,9.10
2019-02-12T13:58:05.677Z,9.10
2019-02-12T14:02:25.826Z,9.10
2019-02-12T14:06:43.944Z,9.00
2019-02-12T14:11:04.933Z,9.00
2019-02-12T14:15:24.613Z,9.00
2019-02-12T14:19:43.315Z,9.00
2019-02-12T14:24:01.468Z,9.00
2019-02-12T14:28:19.789Z,9.00
2019-02-12T14:32:37.984Z,9.00
2019-02-12T14:36:56.509Z,9.00
2019-02-12T14:41:14.799Z,8.90
2019-02-12T14:45:32.863Z,8.90
2019-02-12T14:49:51.085Z,8.80
2019-02-12T14:54:09.130Z,8.80
2019-02-12T14:58:27.308Z,8.70
2019-02-12T15:02:45.529Z,8.70
2019-02-12T15:07:03.666Z,8.70
2019-02-12T15:11:22.267Z,8.70
2019-02-12T15:15:42.132Z,8.70
2019-02-12T15:20:00.606Z,8.70
2019-02-12T15:24:18.750Z,8.60
2019-02-12T15:28:36.904Z,8.50
2019-02-12T15:32:55.459Z,8.40
2019-02-12T15:37:13.561Z,8.40
2019-02-12T15:41:31.748Z,8.30
2019-02-12T15:45:50.055Z,8.20
2019-02-12T15:50:09.187Z,8.20
2019-02-12T15:54:27.180Z,8.10
2019-02-12T15:58:45.265Z,8.00
2019-02-12T16:03:05.084Z,7.90
2019-02-12T16:07:24.426Z,7.90
2019-02-12T16:11:44.072Z,7.80
2019-02-12T16:16:02.749Z,7.80
2019-02-12T16:20:21.159Z,7.70
2019-02-12T16:24:40.055Z,7.70
2019-02-12T16:28:58.225Z,7.70
2019-02-12T16:33:16.857Z,7.60
2019-02-12T16:37:35.198Z,7.60
2019-02-12T16:41:53.664Z,7.60
2019-02-12T16:46:19.351Z,7.60
2019-02-12T16:50:37.758Z,7.50
2019-02-12T16:54:56.705Z,7.60
2019-02-12T16:59:15.125Z,7.50
2019-02-12T17:03:34.344Z,7.50
2019-02-12T17:07:53.351Z,7.50
2019-02-12T17:12:11.368Z,7.50
2019-02-12T17:16:30.127Z,7.40
2019-02-12T17:20:49.468Z,7.40
2019-02-12T17:25:09.667Z,7.40
2019-02-12T17:29:27.716Z,7.30
2019-02-12T17:33:46.786Z,7.30
2019-02-12T17:38:04.795Z,7.30
2019-02-12T17:42:22.938Z,7.30
2019-02-12T17:46:41.770Z,7.30
2019-02-12T17:50:59.924Z,7.20
2019-02-12T17:55:18.370Z,7.20
2019-02-12T17:59:36.669Z,7.30
2019-02-12T18:03:55.345Z,7.20
2019-02-12T18:08:13.525Z,7.30
2019-02-12T18:12:32.045Z,7.20
2019-02-12T18:16:50.406Z,7.20
2019-02-12T18:21:11.083Z,7.10
2019-02-12T18:25:29.757Z,7.10
2019-02-12T18:29:48.179Z,7.10
2019-02-12T18:34:06.545Z,7.10
2019-02-12T18:38:25.026Z,7.00
2019-02-12T18:42:44.076Z,7.00
2019-02-12T18:47:02.376Z,7.00
2019-02-12T18:51:21.634Z,7.00
2019-02-12T18:55:40.659Z,7.00
2019-02-12T18:59:59.172Z,7.00
2019-02-12T19:04:17.788Z,7.00
2019-02-12T19:08:36.651Z,7.00
2019-02-12T19:12:55.234Z,7.00
2019-02-12T19:17:14.127Z,7.00
2019-02-12T19:21:32.295Z,7.00
2019-02-12T19:25:51.470Z,7.00
2019-02-12T19:30:12.301Z,7.00
2019-02-12T19:34:32.344Z,7.10
2019-02-12T19:38:51.858Z,7.00
2019-02-12T19:43:23.371Z,7.00
2019-02-12T19:47:48.591Z,7.00
2019-02-12T19:52:08.851Z,7.00
2019-02-12T19:56:27.376Z,7.00
2019-02-12T20:00:45.849Z,7.00
2019-02-12T20:05:04.588Z,7.00
2019-02-12T20:09:24.849Z,7.00
2019-02-12T20:13:44.309Z,7.00
2019-02-12T20:18:03.172Z,6.90
2019-02-12T20:22:21.819Z,6.90
2019-02-12T20:26:40.382Z,6.90
2019-02-12T20:30:58.926Z,6.90
2019-02-12T20:35:17.283Z,6.90
2019-02-12T20:39:35.302Z,6.90
2019-02-12T20:43:54.343Z,6.90
2019-02-12T20:48:12.549Z,6.90
2019-02-12T20:52:31.101Z,6.80
2019-02-12T20:56:49.329Z,6.70
2019-02-12T21:01:07.953Z,6.70
2019-02-12T21:05:26.345Z,6.60
2019-02-12T21:09:44.573Z,6.50
2019-02-12T21:14:03.661Z,6.40
2019-02-12T21:18:23.894Z,6.40
2019-02-12T21:22:42.579Z,6.30
2019-02-12T21:27:02.697Z,6.20
2019-02-12T21:31:21.091Z,6.10
2019-02-12T21:35:39.544Z,6.10
2019-02-12T21:39:58.137Z,6.10
2019-02-12T21:44:16.993Z,6.10
2019-02-12T21:48:35.210Z,6.00
2019-02-12T21:52:53.748Z,6.00
2019-02-12T21:57:12.208Z,6.00
2019-02-12T22:01:30.463Z,5.90
2019-02-12T22:05:48.683Z,5.90
2019-02-12T22:10:09.677Z,5.90
2019-02-12T22:14:28.405Z,5.80
2019-02-12T22:18:46.983Z,5.80
2019-02-12T22:23:06.108Z,5.70
2019-02-12T22:27:26.673Z,5.60
2019-02-12T22:31:44.860Z,5.60
2019-02-12T22:36:07.899Z,5.50
2019-02-12T22:40:27.447Z,5.40
2019-02-12T22:44:46.048Z,5.30
2019-02-12T22:49:04.570Z,5.20
2019-02-12T22:53:22.747Z,5.10
2019-02-12T22:57:48.968Z,5.00
2019-02-12T23:02:01.141Z,4.90
2019-02-12T23:06:19.939Z,4.90
2019-02-12T23:10:38.096Z,4.80
2019-02-12T23:14:56.744Z,4.80
2019-02-12T23:19:15.180Z,4.80
2019-02-12T23:23:33.419Z,4.70
2019-02-12T23:27:57.590Z,4.70
2019-02-12T23:32:11.943Z,4.70
2019-02-12T23:36:30.032Z,4.60
2019-02-12T23:40:48.684Z,4.60
2019-02-12T23:45:07.125Z,4.50
2019-02-12T23:49:25.533Z,4.40
2019-02-12T23:53:44.655Z,4.40
2019-02-12T23:58:05.945Z,4.40
